Flight Track Log - Related Links

Times and Time Zones

All times are in EDT time to prevent confusion due to time zone crossing. See the AUB1737 flight status page for this flight to view local times or setup timezone preferences in your user account.

Time Position Orientation Groundspeed Altitude Reporting Facility
EDT Latitude Longitude Course Direction KTS MPH feet Rate Location/Type
Sat 06:14:00 AM 41.9274 19.2139 324° Northwest  Level Estimated
Sat 06:15:00 AM 42.0126 19.1287 323° Northwest  Level Estimated
Sat 06:16:00 AM 42.0977 19.0432 323° Northwest  Level Estimated
Sat 06:17:00 AM 42.1828 18.9576 323° Northwest  Level Estimated
Sat 06:18:00 AM 42.2678 18.8716 323° Northwest  Level Estimated
Sat 06:19:00 AM 42.3528 18.7855 323° Northwest  Level Estimated
Sat 06:20:00 AM 42.4377 18.6991 323° Northwest  Level Estimated
Sat 06:21:00 AM 42.5225 18.6125 323° Northwest  Level Estimated
Sat 06:22:00 AM 42.6073 18.5256 323° Northwest  Level Estimated
Sat 06:23:00 AM 42.6920 18.4385 323° Northwest  Level Estimated
Sat 06:24:00 AM 42.7766 18.3512 323° Northwest  Level Estimated
Sat 06:25:00 AM 42.8612 18.2636 323° Northwest  Level Estimated
Sat 06:26:00 AM 42.9457 18.1758 323° Northwest  Level Estimated
Sat 06:27:00 AM 43.0302 18.0878 323° Northwest  Level Estimated
Sat 06:28:00 AM 43.1145 17.9995 323° Northwest  Level Estimated
Sat 06:29:00 AM 43.1988 17.9110 323° Northwest  Level Estimated
Sat 06:30:00 AM 43.2831 17.8222 323° Northwest  Level Estimated
Sat 06:31:00 AM 43.3672 17.7332 322° Northwest  Level Estimated
Sat 06:32:00 AM 43.4513 17.6439 322° Northwest  Level Estimated
Sat 06:33:00 AM 43.5353 17.5544 322° Northwest  Level Estimated
Sat 06:34:00 AM 43.6193 17.4646 322° Northwest  Level Estimated
Sat 06:35:00 AM 43.7032 17.3746 322° Northwest  Level Estimated
Sat 06:36:00 AM 43.7870 17.2843 322° Northwest  Level Estimated
Sat 06:37:00 AM 43.8707 17.1938 322° Northwest  Level Estimated
Sat 06:38:00 AM 43.9544 17.1030 322° Northwest  Level Estimated
Sat 06:39:00 AM 44.0380 17.0120 322° Northwest  Level Estimated
Sat 06:40:00 AM 44.1215 16.9207 322° Northwest  Level Estimated
Sat 06:41:00 AM 44.2049 16.8291 322° Northwest  Level Estimated
Sat 06:42:00 AM 44.2883 16.7373 322° Northwest  Level Estimated
Sat 06:43:00 AM 44.3716 16.6452 322° Northwest  Level Estimated
Sat 06:44:00 AM 44.4549 16.5529 322° Northwest  Level Estimated
Sat 06:45:00 AM 44.5380 16.4603 322° Northwest  Level Estimated
Sat 06:46:00 AM 44.6211 16.3675 322° Northwest  Level Estimated
Sat 06:47:00 AM 44.7041 16.2743 321° Northwest  Level Estimated
Sat 06:48:00 AM 44.7870 16.1809 321° Northwest  Level Estimated
Sat 06:49:00 AM 44.8699 16.0873 321° Northwest  Level Estimated
Sat 06:50:00 AM 44.9527 15.9933 321° Northwest  Level Estimated
Sat 06:51:00 AM 45.0354 15.8991 321° Northwest  Level Estimated
Sat 06:52:00 AM 45.1180 15.8046 321° Northwest  Level Estimated
Sat 06:53:00 AM 45.2005 15.7099 321° Northwest  Level Estimated
Sat 06:54:00 AM 45.2830 15.6149 321° Northwest  Level Estimated
Sat 06:55:00 AM 45.3654 15.5196 321° Northwest  Level Estimated
Sat 06:56:00 AM 45.4477 15.4240 321° Northwest  Level Estimated
Sat 06:57:00 AM 45.5299 15.3281 321° Northwest  Level Estimated
Sat 06:58:00 AM 45.6121 15.2320 321° Northwest  Level Estimated
Sat 06:59:00 AM 45.6941 15.1356 321° Northwest  Level Estimated
Sat 07:00:00 AM 45.7761 15.0388 321° Northwest  Level Estimated
Sat 07:01:00 AM 45.8580 14.9419 320° Northwest  Level Estimated
Sat 07:02:00 AM 45.9398 14.8446 320° Northwest  Level Estimated
Sat 07:03:00 AM 46.0216 14.7470 320° Northwest  Level Estimated
Sat 07:04:00 AM 46.1032 14.6492 320° Northwest  Level Estimated
Sat 07:05:00 AM 46.1848 14.5510 320° Northwest  Level Estimated
Sat 07:06:00 AM 46.2663 14.4526 320° Northwest  Level Estimated
Sat 07:07:00 AM 46.3477 14.3539 320° Northwest  Level Estimated
Sat 07:08:00 AM 46.4290 14.2548 320° Northwest  Level Estimated
Sat 07:09:00 AM 46.5102 14.1555 320° Northwest  Level Estimated
Sat 07:10:00 AM 46.5914 14.0559 320° Northwest  Level Estimated
Sat 07:11:00 AM 46.6601 13.9711 320° Northwest  Level Estimated
Sat 07:12:00 AM 46.7289 13.8862 320° Northwest  Level Estimated
Sat 07:13:00 AM 46.7975 13.8010 320° Northwest  Level Estimated
Sat 07:14:00 AM 46.8661 13.7156 320° Northwest  Level Estimated
Sat 07:15:00 AM 46.9347 13.6299 320° Northwest  Level Estimated
Sat 07:16:00 AM 47.0031 13.5441 319° Northwest  Level Estimated
Sat 07:17:00 AM 47.0715 13.4580 319° Northwest  Level Estimated
Sat 07:18:00 AM 47.1398 13.3718 319° Northwest  Level Estimated
Sat 07:19:00 AM 47.2081 13.2852 319° Northwest  Level Estimated
Sat 07:20:00 AM 47.2763 13.1985 319° Northwest  Level Estimated
Sat 07:21:00 AM 47.3445 13.1116 319° Northwest  Level Estimated
Sat 07:22:00 AM 47.4125 13.0244 319° Northwest  Level Estimated
Sat 07:23:00 AM 47.4805 12.9370 319° Northwest  Level Estimated
Sat 07:24:00 AM 47.5485 12.8494 319° Northwest  Level Estimated
Sat 07:25:00 AM 47.6163 12.7615 319° Northwest  Level Estimated
Sat 07:26:00 AM 47.6842 12.6734 319° Northwest  Level Estimated
Sat 07:27:00 AM 47.7519 12.5851 319° Northwest  Level Estimated
Sat 07:28:00 AM 47.8196 12.4965 319° Northwest  Level Estimated
Sat 07:29:00 AM 47.8872 12.4078 319° Northwest  Level Estimated
Sat 07:30:00 AM 47.9547 12.3188 319° Northwest  Level Estimated
Sat 07:31:00 AM 48.0222 12.2295 319° Northwest  Level Estimated
Sat 07:32:00 AM 48.0896 12.1400 318° Northwest  Level Estimated
Sat 07:33:00 AM 48.1569 12.0503 318° Northwest  Level Estimated
Sat 07:34:00 AM 48.2242 11.9604 318° Northwest  Level Estimated
Sat 07:35:00 AM 48.3033 11.8541 318° Northwest  Level Estimated
Sat 07:36:00 AM 48.3538 11.7861 318° Northwest  Level Estimated
Sat 07:37:00 AM 48.3538 11.7861 318° Northwest  Level Estimated
Sat 07:38:00 AM 48.3538 11.7861 318° Northwest  Level Estimated
Sat 07:39:00 AM 48.3538 11.7861 318° Northwest  Level Estimated
Sat 07:40:00 AM 48.3538 11.7861 318° Northwest  Level Estimated
Sat 07:41:00 AM 48.3538 11.7861 318° Northwest  Level Estimated
Sat 07:42:00 AM 48.3538 11.7861 318° Northwest  Level Estimated
Sat 07:43:00 AM 48.3538 11.7861 318° Northwest  Level Estimated
Sat 07:44:00 AM 48.3538 11.7861 318° Northwest  Level Estimated
Sat 07:45:00 AM 48.3538 11.7861 318° Northwest  Level Estimated
Sat 07:46:00 AM 48.3538 11.7861 318° Northwest  Level Estimated
Sat 07:47:00 AM 48.3538 11.7861 318° Northwest  Level Estimated
Sat 07:48:00 AM 48.3538 11.7861 318° Northwest  Level Estimated

Login

Don't have an account? Register now (free) for customized features, flight alerts, and more!